sensor_id;sensor_type;location;lat;lon;timestamp;P1;durP1;ratioP1;P2;durP2;ratioP2
23113;SDS011;11726;50.122;8.832;2023-05-10T00:01:59;5.03;;;3.50;;
23113;SDS011;11726;50.122;8.832;2023-05-10T00:04:26;6.30;;;3.10;;
23113;SDS011;11726;50.122;8.832;2023-05-10T00:06:53;4.80;;;2.42;;
23113;SDS011;11726;50.122;8.832;2023-05-10T00:09:20;3.35;;;2.55;;
23113;SDS011;11726;50.122;8.832;2023-05-10T00:11:47;4.53;;;2.83;;
23113;SDS011;11726;50.122;8.832;2023-05-10T00:14:14;4.32;;;3.15;;
23113;SDS011;11726;50.122;8.832;2023-05-10T00:16:40;3.35;;;2.33;;
23113;SDS011;11726;50.122;8.832;2023-05-10T00:19:08;4.70;;;1.80;;
23113;SDS011;11726;50.122;8.832;2023-05-10T00:21:34;2.10;;;1.42;;
23113;SDS011;11726;50.122;8.832;2023-05-10T00:24:01;4.18;;;1.00;;
23113;SDS011;11726;50.122;8.832;2023-05-10T00:26:27;3.03;;;1.25;;
23113;SDS011;11726;50.122;8.832;2023-05-10T00:28:54;5.13;;;1.30;;
23113;SDS011;11726;50.122;8.832;2023-05-10T00:31:21;3.80;;;1.05;;
23113;SDS011;11726;50.122;8.832;2023-05-10T00:33:47;1.63;;;1.08;;
23113;SDS011;11726;50.122;8.832;2023-05-10T00:36:14;2.05;;;1.00;;
23113;SDS011;11726;50.122;8.832;2023-05-10T00:38:41;3.53;;;1.33;;
23113;SDS011;11726;50.122;8.832;2023-05-10T00:41:07;1.65;;;1.10;;
23113;SDS011;11726;50.122;8.832;2023-05-10T00:43:35;1.25;;;0.80;;
23113;SDS011;11726;50.122;8.832;2023-05-10T00:46:02;3.15;;;1.13;;
23113;SDS011;11726;50.122;8.832;2023-05-10T00:48:29;1.83;;;0.98;;
23113;SDS011;11726;50.122;8.832;2023-05-10T00:50:56;1.58;;;1.00;;
23113;SDS011;11726;50.122;8.832;2023-05-10T00:53:23;1.00;;;0.77;;
23113;SDS011;11726;50.122;8.832;2023-05-10T00:55:50;3.17;;;0.77;;
23113;SDS011;11726;50.122;8.832;2023-05-10T00:58:17;1.70;;;0.80;;
23113;SDS011;11726;50.122;8.832;2023-05-10T01:00:43;3.92;;;0.80;;
23113;SDS011;11726;50.122;8.832;2023-05-10T01:03:12;1.25;;;0.57;;
23113;SDS011;11726;50.122;8.832;2023-05-10T01:05:39;1.67;;;0.80;;
23113;SDS011;11726;50.122;8.832;2023-05-10T01:08:05;3.30;;;0.80;;
23113;SDS011;11726;50.122;8.832;2023-05-10T01:10:32;3.58;;;0.60;;
23113;SDS011;11726;50.122;8.832;2023-05-10T01:12:59;1.70;;;0.50;;
23113;SDS011;11726;50.122;8.832;2023-05-10T01:15:26;1.25;;;0.50;;
23113;SDS011;11726;50.122;8.832;2023-05-10T01:17:53;0.98;;;0.57;;
23113;SDS011;11726;50.122;8.832;2023-05-10T01:20:20;2.95;;;0.52;;
23113;SDS011;11726;50.122;8.832;2023-05-10T01:22:56;1.50;;;0.50;;
23113;SDS011;11726;50.122;8.832;2023-05-10T01:25:41;0.50;;;0.50;;
23113;SDS011;11726;50.122;8.832;2023-05-10T01:34:25;0.85;;;0.55;;
23113;SDS011;11726;50.122;8.832;2023-05-10T01:37:02;0.70;;;0.50;;
23113;SDS011;11726;50.122;8.832;2023-05-10T01:39:44;2.05;;;0.40;;
23113;SDS011;11726;50.122;8.832;2023-05-10T01:42:23;2.65;;;0.45;;
23113;SDS011;11726;50.122;8.832;2023-05-10T01:45:07;0.43;;;0.40;;
23113;SDS011;11726;50.122;8.832;2023-05-10T01:47:44;1.75;;;0.50;;
23113;SDS011;11726;50.122;8.832;2023-05-10T01:50:22;2.28;;;0.50;;
23113;SDS011;11726;50.122;8.832;2023-05-10T01:52:55;1.48;;;0.52;;
23113;SDS011;11726;50.122;8.832;2023-05-10T01:55:25;1.27;;;0.57;;
23113;SDS011;11726;50.122;8.832;2023-05-10T01:58:05;3.70;;;0.70;;
23113;SDS011;11726;50.122;8.832;2023-05-10T02:00:34;1.10;;;0.70;;
23113;SDS011;11726;50.122;8.832;2023-05-10T02:03:03;0.88;;;0.47;;
23113;SDS011;11726;50.122;8.832;2023-05-10T02:05:32;1.65;;;0.50;;
23113;SDS011;11726;50.122;8.832;2023-05-10T02:08:01;3.05;;;0.50;;
23113;SDS011;11726;50.122;8.832;2023-05-10T02:10:32;2.28;;;0.57;;
23113;SDS011;11726;50.122;8.832;2023-05-10T02:13:02;2.17;;;0.70;;
23113;SDS011;11726;50.122;8.832;2023-05-10T02:15:32;0.82;;;0.57;;
23113;SDS011;11726;50.122;8.832;2023-05-10T02:17:59;3.00;;;0.73;;
23113;SDS011;11726;50.122;8.832;2023-05-10T02:20:28;3.60;;;0.82;;
23113;SDS011;11726;50.122;8.832;2023-05-10T02:22:57;0.60;;;0.60;;
23113;SDS011;11726;50.122;8.832;2023-05-10T02:25:24;2.58;;;0.88;;
23113;SDS011;11726;50.122;8.832;2023-05-10T02:27:53;3.92;;;0.70;;
23113;SDS011;11726;50.122;8.832;2023-05-10T02:30:22;1.13;;;0.52;;
23113;SDS011;11726;50.122;8.832;2023-05-10T02:32:50;2.83;;;0.38;;
23113;SDS011;11726;50.122;8.832;2023-05-10T02:35:18;0.90;;;0.60;;
23113;SDS011;11726;50.122;8.832;2023-05-10T02:37:46;1.08;;;0.40;;
23113;SDS011;11726;50.122;8.832;2023-05-10T02:40:14;1.00;;;0.40;;
23113;SDS011;11726;50.122;8.832;2023-05-10T02:42:43;1.70;;;0.55;;
23113;SDS011;11726;50.122;8.832;2023-05-10T02:45:11;0.50;;;0.50;;
23113;SDS011;11726;50.122;8.832;2023-05-10T02:47:40;2.00;;;0.40;;
23113;SDS011;11726;50.122;8.832;2023-05-10T02:50:07;2.97;;;0.50;;
23113;SDS011;11726;50.122;8.832;2023-05-10T02:52:36;1.85;;;0.50;;
23113;SDS011;11726;50.122;8.832;2023-05-10T02:55:18;1.55;;;0.50;;
23113;SDS011;11726;50.122;8.832;2023-05-10T02:57:48;1.58;;;0.50;;
23113;SDS011;11726;50.122;8.832;2023-05-10T03:00:20;1.10;;;0.68;;
23113;SDS011;11726;50.122;8.832;2023-05-10T03:02:47;0.95;;;0.55;;
23113;SDS011;11726;50.122;8.832;2023-05-10T03:05:13;1.08;;;0.70;;
23113;SDS011;11726;50.122;8.832;2023-05-10T03:07:40;3.13;;;0.70;;
23113;SDS011;11726;50.122;8.832;2023-05-10T03:10:07;2.63;;;0.77;;
23113;SDS011;11726;50.122;8.832;2023-05-10T03:20:35;3.38;;;0.90;;
23113;SDS011;11726;50.122;8.832;2023-05-10T03:23:09;1.08;;;0.85;;
23113;SDS011;11726;50.122;8.832;2023-05-10T03:25:44;3.03;;;0.80;;
23113;SDS011;11726;50.122;8.832;2023-05-10T03:28:14;2.13;;;0.60;;
23113;SDS011;11726;50.122;8.832;2023-05-10T03:30:42;2.00;;;0.90;;
23113;SDS011;11726;50.122;8.832;2023-05-10T03:33:10;3.85;;;0.73;;
23113;SDS011;11726;50.122;8.832;2023-05-10T03:35:38;2.15;;;0.80;;
23113;SDS011;11726;50.122;8.832;2023-05-10T03:38:05;1.42;;;0.90;;
23113;SDS011;11726;50.122;8.832;2023-05-10T03:40:31;1.65;;;0.85;;
23113;SDS011;11726;50.122;8.832;2023-05-10T03:42:58;1.60;;;0.82;;
23113;SDS011;11726;50.122;8.832;2023-05-10T03:45:25;0.60;;;0.60;;
23113;SDS011;11726;50.122;8.832;2023-05-10T03:47:52;2.03;;;0.77;;
23113;SDS011;11726;50.122;8.832;2023-05-10T03:50:20;2.60;;;0.90;;
23113;SDS011;11726;50.122;8.832;2023-05-10T03:52:47;2.28;;;0.90;;
23113;SDS011;11726;50.122;8.832;2023-05-10T03:55:13;1.85;;;0.80;;
23113;SDS011;11726;50.122;8.832;2023-05-10T03:57:40;1.95;;;0.80;;
23113;SDS011;11726;50.122;8.832;2023-05-10T04:00:07;1.73;;;0.80;;
23113;SDS011;11726;50.122;8.832;2023-05-10T04:02:34;2.70;;;0.77;;
23113;SDS011;11726;50.122;8.832;2023-05-10T04:05:01;2.53;;;0.70;;
23113;SDS011;11726;50.122;8.832;2023-05-10T04:07:28;2.40;;;0.80;;
23113;SDS011;11726;50.122;8.832;2023-05-10T04:09:55;3.03;;;0.80;;
23113;SDS011;11726;50.122;8.832;2023-05-10T04:12:21;2.13;;;0.70;;
23113;SDS011;11726;50.122;8.832;2023-05-10T04:14:48;2.80;;;0.95;;
23113;SDS011;11726;50.122;8.832;2023-05-10T04:17:15;1.05;;;0.80;;
23113;SDS011;11726;50.122;8.832;2023-05-10T04:19:41;2.67;;;0.90;;
23113;SDS011;11726;50.122;8.832;2023-05-10T04:22:08;1.23;;;0.70;;
23113;SDS011;11726;50.122;8.832;2023-05-10T04:24:35;1.23;;;0.90;;
23113;SDS011;11726;50.122;8.832;2023-05-10T04:27:01;0.80;;;0.77;;
23113;SDS011;11726;50.122;8.832;2023-05-10T04:29:28;4.03;;;1.17;;
23113;SDS011;11726;50.122;8.832;2023-05-10T04:31:57;1.98;;;1.00;;
23113;SDS011;11726;50.122;8.832;2023-05-10T04:34:24;1.85;;;0.93;;
23113;SDS011;11726;50.122;8.832;2023-05-10T04:36:51;1.10;;;0.90;;
23113;SDS011;11726;50.122;8.832;2023-05-10T04:39:18;3.25;;;1.00;;
23113;SDS011;11726;50.122;8.832;2023-05-10T04:41:44;3.28;;;1.10;;
23113;SDS011;11726;50.122;8.832;2023-05-10T04:44:11;1.52;;;1.08;;
23113;SDS011;11726;50.122;8.832;2023-05-10T04:46:38;2.33;;;1.27;;
23113;SDS011;11726;50.122;8.832;2023-05-10T04:49:05;1.73;;;1.30;;
23113;SDS011;11726;50.122;8.832;2023-05-10T04:51:31;1.65;;;1.13;;
23113;SDS011;11726;50.122;8.832;2023-05-10T04:53:58;2.50;;;1.10;;
23113;SDS011;11726;50.122;8.832;2023-05-10T04:56:31;2.95;;;1.00;;
23113;SDS011;11726;50.122;8.832;2023-05-10T04:58:58;1.35;;;0.80;;
23113;SDS011;11726;50.122;8.832;2023-05-10T05:01:25;3.53;;;1.10;;
23113;SDS011;11726;50.122;8.832;2023-05-10T05:03:52;1.95;;;1.20;;
23113;SDS011;11726;50.122;8.832;2023-05-10T05:06:19;2.35;;;1.10;;
23113;SDS011;11726;50.122;8.832;2023-05-10T05:08:47;2.58;;;1.15;;
23113;SDS011;11726;50.122;8.832;2023-05-10T05:11:15;2.15;;;1.30;;
23113;SDS011;11726;50.122;8.832;2023-05-10T05:13:43;1.90;;;0.95;;
23113;SDS011;11726;50.122;8.832;2023-05-10T05:16:09;3.40;;;1.08;;
23113;SDS011;11726;50.122;8.832;2023-05-10T05:18:37;2.22;;;1.38;;
23113;SDS011;11726;50.122;8.832;2023-05-10T05:21:13;3.25;;;1.27;;
23113;SDS011;11726;50.122;8.832;2023-05-10T05:23:41;2.83;;;1.38;;
23113;SDS011;11726;50.122;8.832;2023-05-10T05:26:08;3.53;;;1.35;;
23113;SDS011;11726;50.122;8.832;2023-05-10T05:28:35;1.73;;;1.20;;
23113;SDS011;11726;50.122;8.832;2023-05-10T05:31:04;6.20;;;1.77;;
23113;SDS011;11726;50.122;8.832;2023-05-10T05:33:31;18.48;;;7.03;;
23113;SDS011;11726;50.122;8.832;2023-05-10T05:36:00;23.35;;;6.30;;
23113;SDS011;11726;50.122;8.832;2023-05-10T05:38:27;2.50;;;1.50;;
23113;SDS011;11726;50.122;8.832;2023-05-10T05:40:54;6.72;;;2.28;;
23113;SDS011;11726;50.122;8.832;2023-05-10T05:43:21;24.60;;;5.93;;
23113;SDS011;11726;50.122;8.832;2023-05-10T05:45:47;3.63;;;1.35;;
23113;SDS011;11726;50.122;8.832;2023-05-10T05:48:14;2.63;;;1.50;;
23113;SDS011;11726;50.122;8.832;2023-05-10T05:50:41;3.63;;;1.60;;
23113;SDS011;11726;50.122;8.832;2023-05-10T05:53:08;3.85;;;1.52;;
23113;SDS011;11726;50.122;8.832;2023-05-10T05:55:35;2.83;;;1.80;;
23113;SDS011;11726;50.122;8.832;2023-05-10T05:58:01;3.28;;;1.58;;
23113;SDS011;11726;50.122;8.832;2023-05-10T06:00:29;2.13;;;1.50;;
23113;SDS011;11726;50.122;8.832;2023-05-10T06:02:55;3.85;;;2.00;;
23113;SDS011;11726;50.122;8.832;2023-05-10T06:05:22;4.38;;;1.77;;
23113;SDS011;11726;50.122;8.832;2023-05-10T06:07:49;3.30;;;1.77;;
23113;SDS011;11726;50.122;8.832;2023-05-10T06:10:15;2.35;;;1.75;;
23113;SDS011;11726;50.122;8.832;2023-05-10T06:12:42;3.25;;;1.90;;
23113;SDS011;11726;50.122;8.832;2023-05-10T06:15:09;2.85;;;1.95;;
23113;SDS011;11726;50.122;8.832;2023-05-10T06:17:36;4.05;;;2.08;;
23113;SDS011;11726;50.122;8.832;2023-05-10T06:20:03;5.70;;;1.80;;
23113;SDS011;11726;50.122;8.832;2023-05-10T06:22:30;4.10;;;2.30;;
23113;SDS011;11726;50.122;8.832;2023-05-10T06:24:56;3.58;;;2.08;;
23113;SDS011;11726;50.122;8.832;2023-05-10T06:27:23;3.00;;;2.13;;
23113;SDS011;11726;50.122;8.832;2023-05-10T06:29:50;5.35;;;2.30;;
23113;SDS011;11726;50.122;8.832;2023-05-10T06:32:27;4.18;;;2.22;;
23113;SDS011;11726;50.122;8.832;2023-05-10T06:34:54;5.78;;;2.35;;
23113;SDS011;11726;50.122;8.832;2023-05-10T06:37:21;3.05;;;2.17;;
23113;SDS011;11726;50.122;8.832;2023-05-10T06:39:47;4.55;;;2.28;;
23113;SDS011;11726;50.122;8.832;2023-05-10T06:42:14;6.47;;;1.85;;
23113;SDS011;11726;50.122;8.832;2023-05-10T06:44:41;4.40;;;2.38;;
23113;SDS011;11726;50.122;8.832;2023-05-10T06:47:07;2.63;;;2.10;;
23113;SDS011;11726;50.122;8.832;2023-05-10T06:49:34;4.55;;;2.30;;
23113;SDS011;11726;50.122;8.832;2023-05-10T06:52:01;4.30;;;2.25;;
23113;SDS011;11726;50.122;8.832;2023-05-10T06:54:28;4.28;;;1.85;;
23113;SDS011;11726;50.122;8.832;2023-05-10T06:56:54;6.07;;;2.47;;
23113;SDS011;11726;50.122;8.832;2023-05-10T06:59:21;4.78;;;2.20;;
23113;SDS011;11726;50.122;8.832;2023-05-10T07:01:48;5.05;;;2.05;;
23113;SDS011;11726;50.122;8.832;2023-05-10T07:04:14;5.05;;;2.28;;
23113;SDS011;11726;50.122;8.832;2023-05-10T07:06:41;3.42;;;2.28;;
23113;SDS011;11726;50.122;8.832;2023-05-10T07:09:08;4.65;;;2.10;;
23113;SDS011;11726;50.122;8.832;2023-05-10T07:11:35;2.75;;;2.08;;
23113;SDS011;11726;50.122;8.832;2023-05-10T07:14:02;9.07;;;2.70;;
23113;SDS011;11726;50.122;8.832;2023-05-10T07:16:29;6.28;;;2.78;;
23113;SDS011;11726;50.122;8.832;2023-05-10T07:18:55;3.90;;;2.10;;
23113;SDS011;11726;50.122;8.832;2023-05-10T07:21:22;5.55;;;2.47;;
23113;SDS011;11726;50.122;8.832;2023-05-10T07:23:54;6.28;;;2.17;;
23113;SDS011;11726;50.122;8.832;2023-05-10T07:26:21;7.70;;;2.42;;
23113;SDS011;11726;50.122;8.832;2023-05-10T07:28:48;4.20;;;2.20;;
23113;SDS011;11726;50.122;8.832;2023-05-10T07:31:14;5.32;;;2.60;;
23113;SDS011;11726;50.122;8.832;2023-05-10T07:33:41;4.53;;;3.33;;
23113;SDS011;11726;50.122;8.832;2023-05-10T07:36:08;7.85;;;2.78;;
23113;SDS011;11726;50.122;8.832;2023-05-10T07:38:34;4.93;;;2.53;;
23113;SDS011;11726;50.122;8.832;2023-05-10T07:41:03;7.07;;;2.60;;
23113;SDS011;11726;50.122;8.832;2023-05-10T07:43:30;4.68;;;2.35;;
23113;SDS011;11726;50.122;8.832;2023-05-10T07:45:56;7.65;;;2.20;;
23113;SDS011;11726;50.122;8.832;2023-05-10T07:48:24;4.97;;;2.40;;
23113;SDS011;11726;50.122;8.832;2023-05-10T07:50:50;5.18;;;2.40;;
23113;SDS011;11726;50.122;8.832;2023-05-10T07:53:17;4.45;;;2.53;;
23113;SDS011;11726;50.122;8.832;2023-05-10T07:55:49;4.18;;;2.30;;
23113;SDS011;11726;50.122;8.832;2023-05-10T07:58:17;2.97;;;1.88;;
23113;SDS011;11726;50.122;8.832;2023-05-10T08:00:44;4.80;;;2.47;;
23113;SDS011;11726;50.122;8.832;2023-05-10T08:03:10;6.15;;;2.00;;
23113;SDS011;11726;50.122;8.832;2023-05-10T08:05:37;6.70;;;2.25;;
23113;SDS011;11726;50.122;8.832;2023-05-10T08:08:04;4.30;;;2.13;;
23113;SDS011;11726;50.122;8.832;2023-05-10T08:10:31;4.80;;;2.10;;
23113;SDS011;11726;50.122;8.832;2023-05-10T08:12:57;6.30;;;2.28;;
23113;SDS011;11726;50.122;8.832;2023-05-10T08:15:24;6.60;;;2.08;;
23113;SDS011;11726;50.122;8.832;2023-05-10T08:17:51;7.75;;;2.42;;
23113;SDS011;11726;50.122;8.832;2023-05-10T08:20:18;3.90;;;2.50;;
23113;SDS011;11726;50.122;8.832;2023-05-10T08:22:45;4.50;;;2.10;;
23113;SDS011;11726;50.122;8.832;2023-05-10T08:25:15;6.00;;;2.50;;
23113;SDS011;11726;50.122;8.832;2023-05-10T08:27:42;2.90;;;2.03;;
23113;SDS011;11726;50.122;8.832;2023-05-10T08:30:09;5.43;;;2.40;;
23113;SDS011;11726;50.122;8.832;2023-05-10T08:32:35;6.55;;;2.20;;
23113;SDS011;11726;50.122;8.832;2023-05-10T08:35:04;4.25;;;2.10;;
23113;SDS011;11726;50.122;8.832;2023-05-10T08:37:31;5.88;;;2.30;;
23113;SDS011;11726;50.122;8.832;2023-05-10T08:39:59;6.80;;;2.15;;
23113;SDS011;11726;50.122;8.832;2023-05-10T08:42:25;3.65;;;2.20;;
23113;SDS011;11726;50.122;8.832;2023-05-10T08:44:56;3.67;;;2.33;;
23113;SDS011;11726;50.122;8.832;2023-05-10T08:47:23;4.53;;;2.20;;
23113;SDS011;11726;50.122;8.832;2023-05-10T08:49:51;4.22;;;1.52;;
23113;SDS011;11726;50.122;8.832;2023-05-10T08:52:18;4.72;;;2.20;;
23113;SDS011;11726;50.122;8.832;2023-05-10T08:54:47;2.88;;;2.00;;
23113;SDS011;11726;50.122;8.832;2023-05-10T08:57:14;5.78;;;1.95;;
23113;SDS011;11726;50.122;8.832;2023-05-10T08:59:41;3.78;;;2.60;;
23113;SDS011;11726;50.122;8.832;2023-05-10T09:02:07;3.47;;;1.85;;
23113;SDS011;11726;50.122;8.832;2023-05-10T09:04:37;3.67;;;1.40;;
23113;SDS011;11726;50.122;8.832;2023-05-10T09:07:04;3.15;;;2.20;;
23113;SDS011;11726;50.122;8.832;2023-05-10T09:09:32;3.92;;;1.90;;
23113;SDS011;11726;50.122;8.832;2023-05-10T09:12:00;5.70;;;1.88;;
23113;SDS011;11726;50.122;8.832;2023-05-10T09:14:27;3.53;;;1.90;;
23113;SDS011;11726;50.122;8.832;2023-05-10T09:16:54;6.25;;;2.00;;
23113;SDS011;11726;50.122;8.832;2023-05-10T09:19:21;2.95;;;1.75;;
23113;SDS011;11726;50.122;8.832;2023-05-10T09:21:48;6.15;;;2.25;;
23113;SDS011;11726;50.122;8.832;2023-05-10T09:24:15;3.65;;;2.03;;
23113;SDS011;11726;50.122;8.832;2023-05-10T09:26:45;3.35;;;1.60;;
23113;SDS011;11726;50.122;8.832;2023-05-10T09:29:15;2.45;;;1.70;;
23113;SDS011;11726;50.122;8.832;2023-05-10T09:31:50;3.80;;;1.92;;
23113;SDS011;11726;50.122;8.832;2023-05-10T09:34:18;4.90;;;1.90;;
23113;SDS011;11726;50.122;8.832;2023-05-10T09:36:53;5.25;;;1.77;;
23113;SDS011;11726;50.122;8.832;2023-05-10T09:39:29;3.05;;;1.60;;
23113;SDS011;11726;50.122;8.832;2023-05-10T09:42:01;4.25;;;1.77;;
23113;SDS011;11726;50.122;8.832;2023-05-10T09:44:30;2.90;;;1.80;;
23113;SDS011;11726;50.122;8.832;2023-05-10T09:46:59;4.47;;;1.75;;
23113;SDS011;11726;50.122;8.832;2023-05-10T09:49:27;3.80;;;1.50;;
23113;SDS011;11726;50.122;8.832;2023-05-10T09:52:03;3.00;;;1.65;;
23113;SDS011;11726;50.122;8.832;2023-05-10T09:54:32;5.68;;;1.90;;
23113;SDS011;11726;50.122;8.832;2023-05-10T09:57:00;4.55;;;1.73;;
23113;SDS011;11726;50.122;8.832;2023-05-10T09:59:27;4.15;;;1.73;;
23113;SDS011;11726;50.122;8.832;2023-05-10T10:01:55;3.63;;;1.73;;
23113;SDS011;11726;50.122;8.832;2023-05-10T10:04:23;3.75;;;1.80;;
23113;SDS011;11726;50.122;8.832;2023-05-10T10:07:00;5.05;;;2.35;;
23113;SDS011;11726;50.122;8.832;2023-05-10T10:09:29;3.22;;;1.55;;
23113;SDS011;11726;50.122;8.832;2023-05-10T10:11:56;4.95;;;2.00;;
23113;SDS011;11726;50.122;8.832;2023-05-10T10:14:23;5.70;;;2.17;;
23113;SDS011;11726;50.122;8.832;2023-05-10T10:16:51;6.00;;;2.00;;
23113;SDS011;11726;50.122;8.832;2023-05-10T10:19:33;4.85;;;2.15;;
23113;SDS011;11726;50.122;8.832;2023-05-10T10:22:02;4.07;;;2.10;;
23113;SDS011;11726;50.122;8.832;2023-05-10T10:24:28;4.68;;;2.10;;
23113;SDS011;11726;50.122;8.832;2023-05-10T10:26:56;4.55;;;2.10;;
23113;SDS011;11726;50.122;8.832;2023-05-10T10:41:27;4.97;;;1.77;;
23113;SDS011;11726;50.122;8.832;2023-05-10T10:47:01;2.33;;;1.70;;
23113;SDS011;11726;50.122;8.832;2023-05-10T10:49:32;4.38;;;1.65;;
23113;SDS011;11726;50.122;8.832;2023-05-10T10:52:13;3.63;;;1.58;;
23113;SDS011;11726;50.122;8.832;2023-05-10T10:55:06;3.42;;;1.60;;
23113;SDS011;11726;50.122;8.832;2023-05-10T11:03:10;5.68;;;1.40;;
23113;SDS011;11726;50.122;8.832;2023-05-10T11:05:49;3.50;;;1.85;;
23113;SDS011;11726;50.122;8.832;2023-05-10T11:08:27;3.45;;;1.50;;
23113;SDS011;11726;50.122;8.832;2023-05-10T11:15:55;0.82;;;0.75;;
23113;SDS011;11726;50.122;8.832;2023-05-10T11:18:24;1.20;;;0.60;;
23113;SDS011;11726;50.122;8.832;2023-05-10T11:23:30;2.05;;;1.05;;
23113;SDS011;11726;50.122;8.832;2023-05-10T11:25:58;2.05;;;1.00;;
23113;SDS011;11726;50.122;8.832;2023-05-10T11:28:27;1.80;;;1.00;;
23113;SDS011;11726;50.122;8.832;2023-05-10T11:30:54;1.30;;;0.90;;
23113;SDS011;11726;50.122;8.832;2023-05-10T11:33:21;1.83;;;1.00;;
23113;SDS011;11726;50.122;8.832;2023-05-10T11:35:47;2.40;;;1.00;;
23113;SDS011;11726;50.122;8.832;2023-05-10T11:38:14;0.95;;;0.90;;
23113;SDS011;11726;50.122;8.832;2023-05-10T11:40:41;1.60;;;1.08;;
23113;SDS011;11726;50.122;8.832;2023-05-10T11:43:08;1.85;;;1.00;;
23113;SDS011;11726;50.122;8.832;2023-05-10T11:45:36;3.42;;;0.90;;
23113;SDS011;11726;50.122;8.832;2023-05-10T11:48:04;1.15;;;0.75;;
23113;SDS011;11726;50.122;8.832;2023-05-10T11:50:31;2.50;;;0.90;;
23113;SDS011;11726;50.122;8.832;2023-05-10T11:52:58;1.70;;;0.88;;
23113;SDS011;11726;50.122;8.832;2023-05-10T11:55:25;1.80;;;0.93;;
23113;SDS011;11726;50.122;8.832;2023-05-10T11:57:52;1.70;;;1.00;;
23113;SDS011;11726;50.122;8.832;2023-05-10T12:00:26;4.40;;;1.10;;
23113;SDS011;11726;50.122;8.832;2023-05-10T12:02:52;1.60;;;1.05;;
23113;SDS011;11726;50.122;8.832;2023-05-10T12:05:19;4.32;;;1.00;;
23113;SDS011;11726;50.122;8.832;2023-05-10T12:07:46;3.13;;;1.00;;
23113;SDS011;11726;50.122;8.832;2023-05-10T12:10:13;1.85;;;0.90;;
23113;SDS011;11726;50.122;8.832;2023-05-10T12:12:45;2.22;;;1.00;;
23113;SDS011;11726;50.122;8.832;2023-05-10T12:17:45;2.15;;;0.98;;
23113;SDS011;11726;50.122;8.832;2023-05-10T12:20:17;1.52;;;1.02;;
23113;SDS011;11726;50.122;8.832;2023-05-10T12:22:46;2.13;;;1.15;;
23113;SDS011;11726;50.122;8.832;2023-05-10T12:25:16;6.60;;;3.38;;
23113;SDS011;11726;50.122;8.832;2023-05-10T12:28:26;2.15;;;1.20;;
23113;SDS011;11726;50.122;8.832;2023-05-10T12:30:35;2.20;;;1.35;;
23113;SDS011;11726;50.122;8.832;2023-05-10T12:33:06;1.70;;;1.00;;
23113;SDS011;11726;50.122;8.832;2023-05-10T12:35:43;1.48;;;1.10;;
23113;SDS011;11726;50.122;8.832;2023-05-10T12:41:00;2.83;;;0.90;;
23113;SDS011;11726;50.122;8.832;2023-05-10T12:43:28;1.98;;;1.00;;
23113;SDS011;11726;50.122;8.832;2023-05-10T12:45:55;3.60;;;0.90;;
23113;SDS011;11726;50.122;8.832;2023-05-10T12:48:22;2.20;;;1.45;;
23113;SDS011;11726;50.122;8.832;2023-05-10T12:50:50;3.22;;;1.10;;
23113;SDS011;11726;50.122;8.832;2023-05-10T12:53:17;1.25;;;1.00;;
23113;SDS011;11726;50.122;8.832;2023-05-10T12:55:44;1.15;;;1.05;;
23113;SDS011;11726;50.122;8.832;2023-05-10T12:58:10;2.35;;;1.05;;
23113;SDS011;11726;50.122;8.832;2023-05-10T13:00:46;3.55;;;0.82;;
23113;SDS011;11726;50.122;8.832;2023-05-10T13:03:13;2.78;;;1.00;;
23113;SDS011;11726;50.122;8.832;2023-05-10T13:05:40;3.20;;;0.82;;
23113;SDS011;11726;50.122;8.832;2023-05-10T13:08:07;1.15;;;1.00;;
23113;SDS011;11726;50.122;8.832;2023-05-10T13:10:34;1.85;;;0.80;;
23113;SDS011;11726;50.122;8.832;2023-05-10T13:13:01;4.30;;;0.80;;
23113;SDS011;11726;50.122;8.832;2023-05-10T13:15:27;1.55;;;0.60;;
23113;SDS011;11726;50.122;8.832;2023-05-10T13:17:54;4.65;;;0.90;;
23113;SDS011;11726;50.122;8.832;2023-05-10T13:20:21;2.15;;;0.75;;
23113;SDS011;11726;50.122;8.832;2023-05-10T13:22:47;1.58;;;0.68;;
23113;SDS011;11726;50.122;8.832;2023-05-10T13:25:16;1.33;;;0.68;;
23113;SDS011;11726;50.122;8.832;2023-05-10T13:27:42;1.45;;;0.70;;
23113;SDS011;11726;50.122;8.832;2023-05-10T13:30:09;1.65;;;0.98;;
23113;SDS011;11726;50.122;8.832;2023-05-10T13:32:37;1.02;;;0.60;;
23113;SDS011;11726;50.122;8.832;2023-05-10T13:35:04;3.22;;;0.63;;
23113;SDS011;11726;50.122;8.832;2023-05-10T13:37:31;2.17;;;0.60;;
23113;SDS011;11726;50.122;8.832;2023-05-10T13:40:01;3.88;;;0.80;;
23113;SDS011;11726;50.122;8.832;2023-05-10T13:42:28;4.30;;;0.90;;
23113;SDS011;11726;50.122;8.832;2023-05-10T13:44:55;1.38;;;0.63;;
23113;SDS011;11726;50.122;8.832;2023-05-10T13:47:21;1.42;;;0.80;;
23113;SDS011;11726;50.122;8.832;2023-05-10T13:49:48;0.95;;;0.73;;
23113;SDS011;11726;50.122;8.832;2023-05-10T13:52:15;1.05;;;0.70;;
23113;SDS011;11726;50.122;8.832;2023-05-10T13:54:41;0.90;;;0.60;;
23113;SDS011;11726;50.122;8.832;2023-05-10T13:57:08;0.85;;;0.50;;
23113;SDS011;11726;50.122;8.832;2023-05-10T13:59:35;0.98;;;0.50;;
23113;SDS011;11726;50.122;8.832;2023-05-10T14:02:01;1.95;;;0.77;;
23113;SDS011;11726;50.122;8.832;2023-05-10T14:04:29;0.85;;;0.60;;
23113;SDS011;11726;50.122;8.832;2023-05-10T14:06:55;1.70;;;0.70;;
23113;SDS011;11726;50.122;8.832;2023-05-10T14:09:22;1.65;;;0.60;;
23113;SDS011;11726;50.122;8.832;2023-05-10T14:11:49;1.27;;;0.60;;
23113;SDS011;11726;50.122;8.832;2023-05-10T14:14:16;1.48;;;0.70;;
23113;SDS011;11726;50.122;8.832;2023-05-10T14:16:43;1.00;;;0.70;;
23113;SDS011;11726;50.122;8.832;2023-05-10T14:19:10;1.42;;;0.70;;
23113;SDS011;11726;50.122;8.832;2023-05-10T14:21:37;1.63;;;0.60;;
23113;SDS011;11726;50.122;8.832;2023-05-10T14:24:04;1.83;;;0.77;;
23113;SDS011;11726;50.122;8.832;2023-05-10T14:26:32;1.42;;;0.63;;
23113;SDS011;11726;50.122;8.832;2023-05-10T14:29:00;2.47;;;0.90;;
23113;SDS011;11726;50.122;8.832;2023-05-10T14:31:27;1.65;;;0.50;;
23113;SDS011;11726;50.122;8.832;2023-05-10T14:33:56;1.50;;;0.60;;
23113;SDS011;11726;50.122;8.832;2023-05-10T14:36:23;1.00;;;0.70;;
23113;SDS011;11726;50.122;8.832;2023-05-10T14:38:50;1.95;;;0.63;;
23113;SDS011;11726;50.122;8.832;2023-05-10T14:41:17;2.30;;;0.55;;
23113;SDS011;11726;50.122;8.832;2023-05-10T14:43:44;1.90;;;0.80;;
23113;SDS011;11726;50.122;8.832;2023-05-10T14:46:10;1.20;;;0.60;;
23113;SDS011;11726;50.122;8.832;2023-05-10T14:48:37;4.75;;;0.63;;
23113;SDS011;11726;50.122;8.832;2023-05-10T14:51:04;2.13;;;0.70;;
23113;SDS011;11726;50.122;8.832;2023-05-10T14:53:30;2.60;;;0.75;;
23113;SDS011;11726;50.122;8.832;2023-05-10T14:55:58;6.15;;;1.00;;
23113;SDS011;11726;50.122;8.832;2023-05-10T14:58:27;4.10;;;0.95;;
23113;SDS011;11726;50.122;8.832;2023-05-10T15:00:53;4.72;;;1.05;;
23113;SDS011;11726;50.122;8.832;2023-05-10T15:03:21;2.63;;;0.77;;
23113;SDS011;11726;50.122;8.832;2023-05-10T15:05:49;7.13;;;1.00;;
23113;SDS011;11726;50.122;8.832;2023-05-10T15:08:15;3.75;;;0.90;;
23113;SDS011;11726;50.122;8.832;2023-05-10T15:10:42;3.42;;;0.90;;
23113;SDS011;11726;50.122;8.832;2023-05-10T15:13:09;1.15;;;0.55;;
23113;SDS011;11726;50.122;8.832;2023-05-10T15:15:35;1.75;;;0.82;;
23113;SDS011;11726;50.122;8.832;2023-05-10T15:18:03;3.47;;;0.80;;
23113;SDS011;11726;50.122;8.832;2023-05-10T15:20:31;3.60;;;1.00;;
23113;SDS011;11726;50.122;8.832;2023-05-10T15:22:57;1.83;;;0.65;;
23113;SDS011;11726;50.122;8.832;2023-05-10T15:25:24;1.50;;;0.70;;
23113;SDS011;11726;50.122;8.832;2023-05-10T15:27:51;1.70;;;0.70;;
23113;SDS011;11726;50.122;8.832;2023-05-10T15:30:17;1.50;;;0.60;;
23113;SDS011;11726;50.122;8.832;2023-05-10T15:32:44;5.60;;;0.90;;
23113;SDS011;11726;50.122;8.832;2023-05-10T15:35:11;3.60;;;0.88;;
23113;SDS011;11726;50.122;8.832;2023-05-10T15:37:38;2.15;;;0.70;;
23113;SDS011;11726;50.122;8.832;2023-05-10T15:40:05;4.03;;;1.17;;
23113;SDS011;11726;50.122;8.832;2023-05-10T15:42:32;0.95;;;0.70;;